createdAt,value
2019-01-09T00:00:50.209Z,6.30
2019-01-09T00:03:30.219Z,6.60
2019-01-09T00:06:10.156Z,6.60
2019-01-09T00:08:50.192Z,6.70
2019-01-09T00:11:30.367Z,6.70
2019-01-09T00:14:10.507Z,6.70
2019-01-09T00:16:50.695Z,6.50
2019-01-09T00:19:31.137Z,6.40
2019-01-09T00:22:11.026Z,6.80
2019-01-09T00:24:50.831Z,6.60
2019-01-09T00:27:30.734Z,6.50
2019-01-09T00:30:11.080Z,6.90
2019-01-09T00:32:50.480Z,7.20
2019-01-09T00:35:37.157Z,6.70
2019-01-09T00:38:12.790Z,6.40
2019-01-09T00:40:52.971Z,6.60
2019-01-09T00:46:16.474Z,6.40
2019-01-09T00:48:56.697Z,6.40
2019-01-09T00:51:36.801Z,6.20
2019-01-09T00:54:17.062Z,6.30
2019-01-09T00:56:57.523Z,6.60
2019-01-09T00:59:37.582Z,6.40
2019-01-09T01:02:17.914Z,6.40
2019-01-09T01:04:58.315Z,6.30
2019-01-09T01:07:38.722Z,6.20
2019-01-09T01:10:18.895Z,6.00
2019-01-09T01:12:59.038Z,6.20
2019-01-09T01:15:39.410Z,6.40
2019-01-09T01:18:19.818Z,6.30
2019-01-09T01:21:00.216Z,6.30
2019-01-09T01:23:39.681Z,6.10
2019-01-09T01:26:19.953Z,6.20
2019-01-09T01:29:00.053Z,6.00
2019-01-09T01:31:40.190Z,6.10
2019-01-09T01:34:20.262Z,5.80
2019-01-09T01:36:59.809Z,6.40
2019-01-09T01:39:39.953Z,6.00
2019-01-09T01:42:20.081Z,6.10
2019-01-09T01:44:59.560Z,6.20
2019-01-09T01:47:39.652Z,6.20
2019-01-09T01:50:19.894Z,6.40
2019-01-09T01:53:00.086Z,5.90
2019-01-09T01:55:39.630Z,6.00
2019-01-09T01:58:20.041Z,6.10
2019-01-09T02:01:00.234Z,6.20
2019-01-09T02:03:40.582Z,6.20
2019-01-09T02:06:20.849Z,5.90
2019-01-09T02:09:00.838Z,6.00
2019-01-09T02:11:41.008Z,6.00
2019-01-09T02:14:21.187Z,6.20
2019-01-09T02:17:01.260Z,6.50
2019-01-09T02:19:41.441Z,5.90
2019-01-09T02:22:21.825Z,6.00
2019-01-09T02:25:02.121Z,6.00
2019-01-09T02:27:42.394Z,6.20
2019-01-09T02:30:22.639Z,6.20
2019-01-09T02:33:02.924Z,6.30
2019-01-09T02:35:43.007Z,6.30
2019-01-09T02:38:23.376Z,6.10
2019-01-09T02:41:03.379Z,7.00
2019-01-09T02:43:43.687Z,6.50
2019-01-09T02:46:23.682Z,6.20
2019-01-09T02:49:03.934Z,6.90
2019-01-09T02:51:44.127Z,6.50
2019-01-09T02:54:24.251Z,6.20
2019-01-09T02:57:04.457Z,6.20
2019-01-09T02:59:44.852Z,6.40
2019-01-09T03:02:24.946Z,6.50
2019-01-09T03:05:06.059Z,6.70
2019-01-09T03:07:46.314Z,6.60
2019-01-09T03:10:26.837Z,6.70
2019-01-09T03:13:07.043Z,7.10
2019-01-09T03:15:47.357Z,6.80
2019-01-09T03:18:27.580Z,6.90
2019-01-09T03:21:07.962Z,6.70
2019-01-09T03:23:48.261Z,6.80
2019-01-09T03:26:28.673Z,6.80
2019-01-09T03:29:08.739Z,6.90
2019-01-09T03:31:49.092Z,6.70
2019-01-09T03:34:29.293Z,6.80
2019-01-09T03:37:09.707Z,6.60
2019-01-09T03:39:49.852Z,6.90
2019-01-09T03:42:30.102Z,6.40
2019-01-09T03:45:10.263Z,6.60
2019-01-09T03:47:50.318Z,6.50
2019-01-09T03:50:30.673Z,6.60
2019-01-09T03:53:10.891Z,6.60
2019-01-09T03:55:51.044Z,6.40
2019-01-09T03:58:31.018Z,6.90
2019-01-09T04:01:11.148Z,6.40
2019-01-09T04:03:51.232Z,6.10
2019-01-09T04:06:31.425Z,6.50
2019-01-09T04:09:11.305Z,6.50
2019-01-09T04:11:51.299Z,6.40
2019-01-09T04:14:31.559Z,6.40
2019-01-09T04:17:11.945Z,6.10
2019-01-09T04:19:52.313Z,6.60
2019-01-09T04:22:32.539Z,6.50
2019-01-09T04:25:16.477Z,6.40
2019-01-09T04:27:56.242Z,6.20
2019-01-09T04:30:36.258Z,6.40
2019-01-09T04:33:16.511Z,6.40
2019-01-09T04:35:56.665Z,6.50
2019-01-09T04:38:36.729Z,6.60
2019-01-09T04:41:16.719Z,6.60
2019-01-09T04:43:57.030Z,6.50
2019-01-09T04:46:37.498Z,6.80
2019-01-09T04:49:17.486Z,7.00
2019-01-09T04:51:57.629Z,6.70
2019-01-09T04:54:37.807Z,6.70
2019-01-09T04:57:17.878Z,6.60
2019-01-09T04:59:57.987Z,6.70
2019-01-09T05:02:38.144Z,6.90
2019-01-09T05:05:18.313Z,7.10
2019-01-09T05:07:58.474Z,7.10
2019-01-09T05:10:38.716Z,6.80
2019-01-09T05:13:18.774Z,6.70
2019-01-09T05:15:58.917Z,6.70
2019-01-09T05:18:39.074Z,6.60
2019-01-09T05:21:19.447Z,6.10
2019-01-09T05:23:59.632Z,6.30
2019-01-09T05:26:39.906Z,6.70
2019-01-09T05:29:19.903Z,6.10
2019-01-09T05:31:59.338Z,6.20
2019-01-09T05:34:39.618Z,6.60
2019-01-09T05:37:19.891Z,6.60
2019-01-09T05:40:00.202Z,6.40
2019-01-09T05:42:40.130Z,6.10
2019-01-09T05:45:20.502Z,6.10
2019-01-09T05:48:00.815Z,5.90
2019-01-09T05:50:41.177Z,6.10
2019-01-09T05:53:21.223Z,6.10
2019-01-09T05:56:01.247Z,6.20
2019-01-09T05:58:41.385Z,6.10
2019-01-09T06:01:21.522Z,6.20
2019-01-09T06:04:01.488Z,6.10
2019-01-09T06:06:41.419Z,5.90
2019-01-09T06:09:21.698Z,6.40
2019-01-09T06:12:02.069Z,6.50
2019-01-09T06:14:42.233Z,6.10
2019-01-09T06:17:21.754Z,6.40
2019-01-09T06:20:01.742Z,5.50
2019-01-09T06:22:41.926Z,5.90
2019-01-09T06:25:22.208Z,5.90
2019-01-09T06:28:02.213Z,5.90
2019-01-09T06:30:42.367Z,5.80
2019-01-09T06:33:22.643Z,6.00
2019-01-09T06:36:03.974Z,5.90
2019-01-09T06:38:44.277Z,6.10
2019-01-09T06:41:24.712Z,5.90
2019-01-09T06:44:04.183Z,5.80
2019-01-09T06:46:44.425Z,5.80
2019-01-09T06:49:24.769Z,5.70
2019-01-09T06:52:04.250Z,6.00
2019-01-09T06:54:44.483Z,6.10
2019-01-09T06:57:24.518Z,5.90
2019-01-09T07:00:04.747Z,6.30
2019-01-09T07:02:44.860Z,5.60
2019-01-09T07:05:25.009Z,5.80
2019-01-09T07:08:05.416Z,6.10
2019-01-09T07:10:45.669Z,6.20
2019-01-09T07:13:25.807Z,6.10
2019-01-09T07:16:05.866Z,6.10
2019-01-09T07:18:46.122Z,6.20
2019-01-09T07:21:26.378Z,6.30
2019-01-09T07:24:06.547Z,6.20
2019-01-09T07:26:46.609Z,6.00
2019-01-09T07:29:26.750Z,6.30
2019-01-09T07:32:06.662Z,6.30
2019-01-09T07:34:46.760Z,6.80
2019-01-09T07:37:26.898Z,6.40
2019-01-09T07:40:07.127Z,6.30
2019-01-09T07:42:47.198Z,6.80
2019-01-09T07:45:27.003Z,6.60
2019-01-09T07:48:07.201Z,6.40
2019-01-09T07:50:47.300Z,6.40
2019-01-09T07:53:27.169Z,6.00
2019-01-09T07:56:07.511Z,6.70
2019-01-09T07:58:46.962Z,6.50
2019-01-09T08:01:27.042Z,6.40
2019-01-09T08:04:06.950Z,6.40
2019-01-09T08:06:47.204Z,7.00
2019-01-09T08:09:27.173Z,6.20
2019-01-09T08:12:07.552Z,6.30
2019-01-09T08:14:47.822Z,6.10
2019-01-09T08:17:28.170Z,6.50
2019-01-09T08:20:08.230Z,7.40
2019-01-09T08:22:48.446Z,6.20
2019-01-09T08:25:28.554Z,6.20
2019-01-09T08:28:08.825Z,6.60
2019-01-09T08:30:49.062Z,6.90
2019-01-09T08:33:29.290Z,7.00
2019-01-09T08:36:09.359Z,6.20
2019-01-09T08:38:49.679Z,6.50
2019-01-09T08:41:30.002Z,6.60
2019-01-09T08:44:10.090Z,6.60
2019-01-09T08:46:50.238Z,6.00
2019-01-09T08:49:30.421Z,6.70
2019-01-09T08:52:10.478Z,7.10
2019-01-09T08:54:50.537Z,7.20
2019-01-09T08:57:30.540Z,6.70
2019-01-09T09:00:10.811Z,6.80
2019-01-09T09:02:51.040Z,6.50
2019-01-09T09:05:31.546Z,6.80
2019-01-09T09:08:12.571Z,6.10
2019-01-09T09:10:52.175Z,6.70
2019-01-09T09:13:32.409Z,6.90
2019-01-09T09:16:12.624Z,6.90
2019-01-09T09:18:52.930Z,6.60
2019-01-09T09:21:32.937Z,7.00
2019-01-09T09:24:12.873Z,7.60
2019-01-09T09:26:52.974Z,6.50
2019-01-09T09:29:33.033Z,7.00
2019-01-09T09:32:13.396Z,7.10
2019-01-09T09:34:53.584Z,7.00
2019-01-09T09:37:33.762Z,7.20
2019-01-09T09:40:14.054Z,7.10
2019-01-09T09:42:54.530Z,7.10
2019-01-09T09:45:34.617Z,7.10
2019-01-09T09:48:14.803Z,7.10
2019-01-09T09:50:54.859Z,7.20
2019-01-09T09:53:35.151Z,6.50
2019-01-09T09:56:15.315Z,7.10
2019-01-09T09:58:55.297Z,7.20
2019-01-09T10:01:35.530Z,7.50
2019-01-09T10:04:15.646Z,7.10
2019-01-09T10:06:55.922Z,7.10
2019-01-09T10:09:35.834Z,7.30
2019-01-09T10:12:15.991Z,7.10
2019-01-09T10:14:56.237Z,7.70
2019-01-09T10:17:36.334Z,7.30
2019-01-09T10:20:16.610Z,7.60
2019-01-09T10:22:56.695Z,6.80
2019-01-09T10:25:36.843Z,7.50
2019-01-09T10:28:16.823Z,7.90
2019-01-09T10:30:56.901Z,7.50
2019-01-09T10:33:37.167Z,7.50
2019-01-09T10:36:17.523Z,7.10
2019-01-09T10:38:57.379Z,7.10
2019-01-09T10:41:37.634Z,7.50
2019-01-09T10:44:18.880Z,7.50
2019-01-09T10:46:59.246Z,7.40
2019-01-09T10:49:39.538Z,6.90
2019-01-09T10:52:19.805Z,7.50
2019-01-09T10:54:59.902Z,7.50
2019-01-09T10:57:40.101Z,7.60
2019-01-09T11:00:20.467Z,7.60
2019-01-09T11:03:00.546Z,8.20
2019-01-09T11:05:40.604Z,7.80
2019-01-09T11:08:20.663Z,7.90
2019-01-09T11:11:00.886Z,7.90
2019-01-09T11:13:41.198Z,7.60
2019-01-09T11:16:21.291Z,7.90
2019-01-09T11:19:01.400Z,7.80
2019-01-09T11:21:41.684Z,7.90
2019-01-09T11:24:21.732Z,7.80
2019-01-09T11:27:01.229Z,8.40
2019-01-09T11:29:41.407Z,8.20
2019-01-09T11:32:21.776Z,7.60
2019-01-09T11:35:02.026Z,8.10
2019-01-09T11:37:41.950Z,7.60
2019-01-09T11:40:22.167Z,8.00
2019-01-09T11:43:03.727Z,8.10
2019-01-09T11:45:43.620Z,8.30
2019-01-09T11:48:23.171Z,8.20
2019-01-09T11:51:03.501Z,8.10
2019-01-09T11:53:43.906Z,8.10
2019-01-09T11:56:23.982Z,8.00
2019-01-09T11:59:04.053Z,7.30
2019-01-09T12:01:44.190Z,8.00
2019-01-09T12:04:24.136Z,7.90
2019-01-09T12:07:04.233Z,8.00
2019-01-09T12:09:44.360Z,8.00
2019-01-09T12:12:24.353Z,8.10
2019-01-09T12:15:04.211Z,8.20
2019-01-09T12:17:44.279Z,8.20
2019-01-09T12:20:24.062Z,8.20
2019-01-09T12:23:04.099Z,8.70
2019-01-09T12:25:44.210Z,8.10
2019-01-09T12:28:24.293Z,8.30
2019-01-09T12:31:04.575Z,8.20
2019-01-09T12:33:44.739Z,8.30
2019-01-09T12:36:24.870Z,8.00
2019-01-09T12:39:13.049Z,8.40
2019-01-09T12:41:47.129Z,8.10
2019-01-09T12:44:27.275Z,8.20
2019-01-09T12:47:10.526Z,7.70
2019-01-09T12:49:50.761Z,8.30
2019-01-09T12:52:31.130Z,8.70
2019-01-09T12:55:11.404Z,8.50
2019-01-09T12:57:51.593Z,8.50
2019-01-09T13:00:32.001Z,8.40
2019-01-09T13:03:12.159Z,8.50
2019-01-09T13:05:52.508Z,7.90
2019-01-09T13:08:32.658Z,8.80
2019-01-09T13:11:12.971Z,8.60
2019-01-09T13:13:53.278Z,8.90
2019-01-09T13:16:33.501Z,9.40
2019-01-09T13:19:13.486Z,9.40
2019-01-09T13:21:53.446Z,9.70
2019-01-09T13:24:33.593Z,9.50
2019-01-09T13:27:13.751Z,9.30
2019-01-09T13:29:53.928Z,10.00
2019-01-09T13:32:34.054Z,9.70
2019-01-09T13:35:14.139Z,10.00
2019-01-09T13:37:54.197Z,10.00
2019-01-09T13:40:34.443Z,10.70
2019-01-09T13:43:14.049Z,10.70
2019-01-09T13:45:54.120Z,11.20
2019-01-09T13:48:34.121Z,11.20
2019-01-09T13:51:14.220Z,11.50
2019-01-09T13:53:54.338Z,10.60
2019-01-09T13:56:34.387Z,10.70
2019-01-09T13:59:14.384Z,10.70
2019-01-09T14:01:54.710Z,10.40
2019-01-09T14:04:34.897Z,10.10
2019-01-09T14:07:15.005Z,10.00
2019-01-09T14:09:55.184Z,9.90
2019-01-09T14:12:35.366Z,10.30
2019-01-09T14:15:15.632Z,10.20
2019-01-09T14:17:55.901Z,10.70
2019-01-09T14:20:36.217Z,9.90
2019-01-09T14:23:16.214Z,10.00
2019-01-09T14:25:56.500Z,10.10
2019-01-09T14:28:36.753Z,10.30
2019-01-09T14:31:16.796Z,10.20
2019-01-09T14:33:57.171Z,10.30
2019-01-09T14:36:37.316Z,10.20
2019-01-09T14:39:17.597Z,9.90
2019-01-09T14:41:57.759Z,10.10
2019-01-09T14:44:38.074Z,9.70
2019-01-09T14:47:18.427Z,9.80
2019-01-09T14:49:58.665Z,9.80
2019-01-09T14:52:38.783Z,9.30
2019-01-09T14:55:19.183Z,9.30
2019-01-09T14:57:59.443Z,9.20
2019-01-09T15:00:39.723Z,9.00
2019-01-09T15:03:20.000Z,8.50
2019-01-09T15:06:00.411Z,8.90
2019-01-09T15:08:40.385Z,8.80
2019-01-09T15:11:20.711Z,8.80
2019-01-09T15:14:00.948Z,8.50
2019-01-09T15:16:41.272Z,8.20
2019-01-09T15:19:21.409Z,8.50
2019-01-09T15:22:01.685Z,8.40
2019-01-09T15:24:41.813Z,8.40
2019-01-09T15:27:22.030Z,8.60
2019-01-09T15:30:02.326Z,8.60
2019-01-09T15:32:43.077Z,8.00
2019-01-09T15:35:22.706Z,8.20
2019-01-09T15:38:02.791Z,8.20
2019-01-09T15:40:42.913Z,8.10
2019-01-09T15:43:23.313Z,8.20
2019-01-09T15:48:46.467Z,7.70
2019-01-09T15:51:26.468Z,7.90
2019-01-09T15:54:06.427Z,7.90
2019-01-09T15:56:46.659Z,7.50
2019-01-09T16:02:12.023Z,8.10
2019-01-09T16:04:52.412Z,8.20
2019-01-09T16:07:32.759Z,7.80
2019-01-09T16:10:14.736Z,7.70
2019-01-09T16:12:54.661Z,7.70
2019-01-09T16:15:34.983Z,7.70
2019-01-09T16:18:15.018Z,7.60
2019-01-09T16:20:55.401Z,7.20
2019-01-09T16:23:35.309Z,8.30
2019-01-09T16:26:15.387Z,7.60
2019-01-09T16:28:55.344Z,7.60
2019-01-09T16:31:35.496Z,7.60
2019-01-09T16:34:15.678Z,7.40
2019-01-09T16:36:55.836Z,7.50
2019-01-09T16:39:35.935Z,7.50
2019-01-09T16:42:16.246Z,7.40
2019-01-09T16:44:56.713Z,7.30
2019-01-09T16:47:36.634Z,7.50
2019-01-09T16:50:16.507Z,7.40
2019-01-09T16:52:56.635Z,6.90
2019-01-09T16:55:36.926Z,7.00
2019-01-09T16:58:17.239Z,7.60
2019-01-09T17:00:57.442Z,7.00
2019-01-09T17:03:37.556Z,7.20
2019-01-09T17:06:17.958Z,6.80
2019-01-09T17:08:57.649Z,7.30
2019-01-09T17:11:37.850Z,7.70
2019-01-09T17:14:18.083Z,7.20
2019-01-09T17:16:58.365Z,7.30
2019-01-09T17:19:38.689Z,7.20
2019-01-09T17:22:18.962Z,7.40
2019-01-09T17:24:59.063Z,7.10
2019-01-09T17:27:39.401Z,7.00
2019-01-09T17:30:19.667Z,7.20
2019-01-09T17:32:59.841Z,7.40
2019-01-09T17:35:39.954Z,6.90
2019-01-09T17:38:20.306Z,7.00
2019-01-09T17:41:00.594Z,7.10
2019-01-09T17:43:40.840Z,6.60
2019-01-09T17:46:20.800Z,6.80
2019-01-09T17:49:00.945Z,7.50
2019-01-09T17:51:41.284Z,6.90
2019-01-09T17:54:21.506Z,6.80
2019-01-09T17:57:01.641Z,7.20
2019-01-09T17:59:41.955Z,7.00
2019-01-09T18:02:22.272Z,6.80
2019-01-09T18:05:02.337Z,6.80
2019-01-09T18:10:24.750Z,6.30
2019-01-09T18:13:04.823Z,6.80
2019-01-09T18:15:45.197Z,6.90
2019-01-09T18:18:25.295Z,6.40
2019-01-09T18:21:05.474Z,6.90
2019-01-09T18:23:45.566Z,6.80
2019-01-09T18:26:25.785Z,6.80
2019-01-09T18:29:06.043Z,6.60
2019-01-09T18:31:49.480Z,6.90
2019-01-09T18:34:29.794Z,6.70
2019-01-09T18:37:10.215Z,6.60
2019-01-09T18:39:50.319Z,7.10
2019-01-09T18:42:31.727Z,7.00
2019-01-09T18:45:11.924Z,7.00
2019-01-09T18:47:55.260Z,6.90
2019-01-09T18:50:35.317Z,6.90
2019-01-09T18:53:15.386Z,6.80
2019-01-09T18:55:55.462Z,6.80
2019-01-09T18:58:35.557Z,6.80
2019-01-09T19:01:15.725Z,7.10
2019-01-09T19:03:55.984Z,6.50
2019-01-09T19:06:36.227Z,6.50
2019-01-09T19:09:16.478Z,6.70
2019-01-09T19:11:56.935Z,6.80
2019-01-09T19:14:37.112Z,7.00
2019-01-09T19:17:17.205Z,6.80
2019-01-09T19:19:57.552Z,6.60
2019-01-09T19:22:37.624Z,6.70
2019-01-09T19:25:17.999Z,6.90
2019-01-09T19:27:58.294Z,6.50
2019-01-09T19:30:38.521Z,6.40
2019-01-09T19:33:18.437Z,7.00
2019-01-09T19:35:58.396Z,6.90
2019-01-09T19:38:38.691Z,6.70
2019-01-09T19:41:18.766Z,7.20
2019-01-09T19:43:59.225Z,6.70
2019-01-09T19:46:39.346Z,6.60
2019-01-09T19:49:19.520Z,6.20
2019-01-09T19:51:59.678Z,6.90
2019-01-09T19:54:39.768Z,6.70
2019-01-09T19:57:19.949Z,7.00
2019-01-09T20:00:00.204Z,7.20
2019-01-09T20:02:40.579Z,6.70
2019-01-09T20:05:20.780Z,6.70
2019-01-09T20:08:01.325Z,6.20
2019-01-09T20:10:41.439Z,6.70
2019-01-09T20:16:05.016Z,6.80
2019-01-09T20:18:45.155Z,7.00
2019-01-09T20:21:25.631Z,6.70
2019-01-09T20:24:05.985Z,6.80
2019-01-09T20:26:46.322Z,6.60
2019-01-09T20:29:26.662Z,6.50
2019-01-09T20:32:06.987Z,6.60
2019-01-09T20:34:47.190Z,6.40
2019-01-09T20:37:27.545Z,6.40
2019-01-09T20:42:54.183Z,6.60
2019-01-09T20:45:34.500Z,6.60
2019-01-09T20:48:14.784Z,6.60
2019-01-09T20:50:55.017Z,6.50
2019-01-09T20:53:35.206Z,6.70
2019-01-09T20:56:15.358Z,6.40
2019-01-09T20:58:55.500Z,6.60
2019-01-09T21:01:35.692Z,6.60
2019-01-09T21:04:15.916Z,6.70
2019-01-09T21:06:55.879Z,6.50
2019-01-09T21:09:36.166Z,6.50
2019-01-09T21:12:16.638Z,6.70
2019-01-09T21:14:56.863Z,6.40
2019-01-09T21:17:37.357Z,7.00
2019-01-09T21:20:17.438Z,6.20
2019-01-09T21:22:57.602Z,7.10
2019-01-09T21:25:37.898Z,6.40
2019-01-09T21:28:18.120Z,6.60
2019-01-09T21:30:58.397Z,6.50
2019-01-09T21:33:38.455Z,6.40
2019-01-09T21:36:18.748Z,6.40
2019-01-09T21:38:58.998Z,6.30
2019-01-09T21:41:39.134Z,6.70
2019-01-09T21:44:19.395Z,6.60
2019-01-09T21:46:59.814Z,6.30
2019-01-09T21:49:39.862Z,6.30
2019-01-09T21:52:20.115Z,6.30
2019-01-09T21:54:59.965Z,6.50
2019-01-09T21:57:40.286Z,6.10
2019-01-09T22:00:20.288Z,6.00
2019-01-09T22:03:00.534Z,6.10
2019-01-09T22:05:40.702Z,5.90
2019-01-09T22:08:21.086Z,5.90
2019-01-09T22:11:01.405Z,6.10
2019-01-09T22:13:41.639Z,6.10
2019-01-09T22:16:21.646Z,6.10
2019-01-09T22:19:01.931Z,5.90
2019-01-09T22:21:41.967Z,6.10
2019-01-09T22:24:22.112Z,6.10
2019-01-09T22:27:02.246Z,5.60
2019-01-09T22:29:42.340Z,6.10
2019-01-09T22:32:22.490Z,6.00
2019-01-09T22:35:02.675Z,6.20
2019-01-09T22:37:42.885Z,6.20
2019-01-09T22:40:23.134Z,6.00
2019-01-09T22:43:03.418Z,7.30
2019-01-09T22:45:42.977Z,6.20
2019-01-09T22:48:23.092Z,6.00
2019-01-09T22:51:03.023Z,5.60
2019-01-09T22:53:43.252Z,6.00
2019-01-09T22:56:23.256Z,5.60
2019-01-09T23:01:46.647Z,5.90
2019-01-09T23:04:26.777Z,5.80
2019-01-09T23:07:07.170Z,5.80
2019-01-09T23:09:47.090Z,5.90
2019-01-09T23:12:27.235Z,5.90
2019-01-09T23:15:07.994Z,5.80
2019-01-09T23:17:47.851Z,5.80
2019-01-09T23:20:28.009Z,5.90
2019-01-09T23:23:08.134Z,5.90
2019-01-09T23:25:48.342Z,5.80
2019-01-09T23:28:28.473Z,5.50
2019-01-09T23:31:08.923Z,5.80
2019-01-09T23:33:49.206Z,5.90
2019-01-09T23:36:29.460Z,5.90
2019-01-09T23:39:09.558Z,5.80
2019-01-09T23:41:49.682Z,5.90
2019-01-09T23:44:30.028Z,6.50
2019-01-09T23:47:10.354Z,5.90
2019-01-09T23:49:50.474Z,5.90
2019-01-09T23:52:30.594Z,5.90
2019-01-09T23:55:10.746Z,5.20
2019-01-09T23:57:50.951Z,6.10
